Swain, NY (14884)

05:34 EST le 24 février 2017 (GMT -0500)
Swain | | Change Station

Alt. 1706 ft 42.48 °N, 77.86 °W | Updated 21 seconds ago

Couvert
Couvert
47.1 ° F
Paraît 47 ° F
N
3.0
Vent Variable Vent de SSO

Aujourd'hui
Haut(e) -- | Bas -- ° F
--% Risque de précip.
Hier
Haut(e) -- | Bas -- ° F
Precip. -- pouce
Pression 29.82 pouce
Visibilité 2.5 Miles terrestres
Nuages Nuageux 4100 ft
Couvert 6500 ft
Refroidissement éolien 47 ° F
Point de rosée 46 ° F
Humidité 98%
Précipitations 0.87 pouce
Profondeur de la couche neigeuse Non disponible.
6:54 AM 5:55 PM
Lune descendante, 5% visible
SPECI KDSV 241023Z AUTO 18010KT 2 1/2SM TSRA BR BKN041 OVC065 08/07 A2982 RMK AO2 LTG DSNT SW P0021 T00780067
Pression 29.82 pouce
Visibilité 2.5 Miles terrestres
Nuages Nuageux 4100 ft
Couvert 6500 ft
Refroidissement éolien 47 ° F
Point de rosée 46 ° F
Humidité 98%
Précipitations 0.87 pouce
Profondeur de la couche neigeuse Non disponible.
6:54 AM 5:55 PM
Lune descendante, 5% visible
SPECI KDSV 241023Z AUTO 18010KT 2 1/2SM TSRA BR BKN041 OVC065 08/07 A2982 RMK AO2 LTG DSNT SW P0021 T00780067

Get Your Daily Forecast Email!

Thanks for signing up!

Be on the lookout for a verification email in your inbox.

You'll start receiving the daily forecast at 8 AM.

×

10-Day Weather Forecast

Almanac

Astronomie

Feb. 24, 2017 Lever Coucher
Temps réel
Crépuscule civil
Crépuscule nautique
Crépuscule astronomique
Lune
Durée de lumière visible
Longueur du jour
Tomorrow will be .
, % of the Moon is Illuminated

Extrêmes aujourd'hui

State Highs State Lows

Community

WunderPhotos

Upload Photos

1,962,540 Photos téléchargées !

WunderBlog® & News

Nearby

Qualité de l'air

  Qualité de l'air Indice de la qualité de l'air Polluant
Not available.

Épaisseur de neige

Station Depth Altitude

Activité sismique

Ville Distance Mag. Time & Date
Minimum magnitude displayed is 2.5.

Températures des eaux côtières

Lieu Température

Stations

Stations météo à proximité

Emplacement de la station Température Refroidissement éolien Point de rosée Humidité Vent Precip. Alt. Mise à jour Type
                   

Watches & Warnings

There are currently no watches in effect.